Time;durP1;ratioP1;P1;durP2;ratioP2;P2;SDS_P1;SDS_P2;PMS_P1;PMS_P2;Temp;Humidity;BMP_temperature;BMP_pressure;BME280_temperature;BME280_humidity;BME280_pressure;Samples;Min_cycle;Max_cycle;Signal;HPM_P1;HPM_P2
2021/05/26 00:00:08;;;;;;;7.23;4.23;;;;;;;8.80;84.88;100499.28;128264;1101;62672;-82
2021/05/26 00:02:37;;;;;;;5.80;5.07;;;;;;;8.80;85.35;100496.64;128116;1104;62346;-83
2021/05/26 00:05:06;;;;;;;5.43;4.30;;;;;;;8.79;85.27;100487.04;128270;1101;62629;-83
2021/05/26 00:07:34;;;;;;;5.23;3.13;;;;;;;8.80;85.36;100486.06;128097;1104;62460;-83
2021/05/26 00:10:01;;;;;;;4.90;3.77;;;;;;;8.81;85.26;100478.94;128121;1105;62168;-83
2021/05/26 00:12:28;;;;;;;6.53;4.00;;;;;;;8.79;85.92;100481.75;128098;1104;62564;-83
2021/05/26 00:14:55;;;;;;;6.13;2.90;;;;;;;8.79;85.25;100479.11;128232;1101;62526;-83
2021/05/26 00:17:22;;;;;;;6.13;4.50;;;;;;;8.77;85.67;100475.80;128140;1104;62280;-82
2021/05/26 00:19:49;;;;;;;5.00;3.57;;;;;;;8.78;85.64;100469.53;128130;1104;62493;-81
2021/05/26 00:22:16;;;;;;;5.37;4.33;;;;;;;8.79;86.01;100468.52;128222;1101;62127;-81
2021/05/26 00:24:43;;;;;;;6.07;3.30;;;;;;;8.78;85.38;100473.00;128061;1104;62627;-81
2021/05/26 00:27:10;;;;;;;5.77;3.80;;;;;;;8.81;85.08;100461.25;128118;1104;63123;-81
2021/05/26 00:29:37;;;;;;;4.93;3.77;;;;;;;8.82;85.02;100473.49;128143;1101;62417;-80
2021/05/26 00:32:05;;;;;;;4.77;3.63;;;;;;;8.82;84.83;100454.98;128088;1104;62507;-80
2021/05/26 00:34:32;;;;;;;6.43;4.30;;;;;;;8.82;84.48;100462.06;128221;1102;62574;-80
2021/05/26 00:36:59;;;;;;;6.53;4.43;;;;;;;8.86;83.70;100469.52;128125;1104;62351;-80
2021/05/26 00:39:26;;;;;;;5.27;4.13;;;;;;;8.87;84.09;100460.58;128070;1104;62465;-81
2021/05/26 00:41:53;;;;;;;25.27;6.50;;;;;;;8.87;83.75;100465.86;128220;1101;62209;-81
2021/05/26 00:44:20;;;;;;;5.07;3.07;;;;;;;8.88;83.33;100453.45;128107;1104;62581;-82
2021/05/26 00:46:47;;;;;;;5.97;4.37;;;;;;;8.86;83.97;100451.00;128134;1104;62296;-81
2021/05/26 00:49:14;;;;;;;6.50;4.30;;;;;;;8.89;83.66;100453.30;128134;1101;62437;-81
2021/05/26 00:51:41;;;;;;;6.50;4.30;;;;;;;8.92;83.64;100455.59;128126;1104;62568;-83
2021/05/26 00:54:09;;;;;;;9.20;4.13;;;;;;;8.93;83.29;100454.61;128098;1104;62589;-79
2021/05/26 00:56:37;;;;;;;3.63;2.87;;;;;;;8.92;83.55;100463.52;128170;1104;62930;-81
2021/05/26 00:59:06;;;;;;;6.47;4.57;;;;;;;8.92;83.46;100452.94;128075;1104;65173;-82
2021/05/26 01:01:35;;;;;;;5.53;4.30;;;;;;;8.92;82.82;100463.52;128126;1104;62109;-81
2021/05/26 01:04:03;;;;;;;4.23;3.67;;;;;;;8.94;83.28;100445.66;128223;1101;62445;-81
2021/05/26 01:06:30;;;;;;;5.87;4.03;;;;;;;8.94;82.66;100450.95;128090;1104;63158;-82
2021/05/26 01:08:57;;;;;;;5.83;4.13;;;;;;;8.95;83.36;100459.73;128132;1104;62488;-82
2021/05/26 01:11:24;;;;;;;4.60;3.30;;;;;;;8.94;83.35;100450.13;128149;1104;62822;-81
2021/05/26 01:13:52;;;;;;;7.97;4.50;;;;;;;8.95;82.77;100452.62;128088;1104;64217;-81
2021/05/26 01:16:19;;;;;;;8.07;4.90;;;;;;;8.96;82.86;100454.25;128125;1104;62259;-81
2021/05/26 01:18:46;;;;;;;5.50;3.77;;;;;;;8.97;82.69;100447.98;128118;1104;62721;-81
2021/05/26 01:21:15;;;;;;;5.63;2.87;;;;;;;8.98;82.84;100449.62;128160;1104;61694;-81
2021/05/26 01:23:43;;;;;;;6.70;3.80;;;;;;;8.98;82.91;100446.97;128209;1101;62963;-82
2021/05/26 01:26:10;;;;;;;4.40;4.00;;;;;;;8.96;82.73;100448.14;128151;1104;62470;-81
2021/05/26 01:28:38;;;;;;;6.33;4.47;;;;;;;8.97;83.34;100450.63;128068;1104;64032;-81
2021/05/26 01:31:05;;;;;;;5.80;4.00;;;;;;;8.98;83.47;100441.68;128160;1104;62166;-82
2021/05/26 01:33:32;;;;;;;6.13;4.20;;;;;;;8.98;83.06;100446.97;128094;1104;62611;-81
2021/05/26 01:36:00;;;;;;;6.30;3.10;;;;;;;8.96;83.75;100448.96;128121;1104;62929;-81
2021/05/26 01:38:27;;;;;;;6.43;3.53;;;;;;;8.95;83.42;100439.39;128124;1104;62112;-81
2021/05/26 01:40:59;;;;;;;7.27;3.83;;;;;;;8.92;83.36;100437.06;128100;1104;63089;-81
2021/05/26 01:43:28;;;;;;;6.00;4.13;;;;;;;8.93;83.30;100449.31;128164;1101;62502;-81
2021/05/26 01:45:55;;;;;;;4.63;3.57;;;;;;;8.92;83.78;100441.55;128269;1101;62226;-81
2021/05/26 01:48:22;;;;;;;4.33;2.63;;;;;;;8.85;83.78;100436.11;128139;1101;63483;-80
2021/05/26 01:50:50;;;;;;;5.60;4.50;;;;;;;8.91;83.45;100443.37;128059;1104;64290;-82
2021/05/26 01:53:18;;;;;;;7.03;3.63;;;;;;;8.88;83.90;100446.37;128063;1104;62494;-82
2021/05/26 01:55:45;;;;;;;4.93;3.90;;;;;;;8.88;84.20;100443.72;128130;1104;63264;-81
2021/05/26 01:58:14;;;;;;;8.67;5.23;;;;;;;8.88;83.98;100438.44;128162;1104;62245;-82
2021/05/26 02:00:43;;;;;;;4.77;3.03;;;;;;;8.86;84.49;100436.92;128052;1104;64113;-82
2021/05/26 02:03:10;;;;;;;6.53;2.50;;;;;;;8.85;84.31;100441.41;128225;1101;62548;-82
2021/05/26 02:05:38;;;;;;;7.10;4.20;;;;;;;8.83;83.91;100432.81;128100;1104;63141;-81
2021/05/26 02:08:06;;;;;;;7.43;4.40;;;;;;;8.80;84.54;100435.81;128102;1104;62719;-81
2021/05/26 02:13:21;;;;;;;7.37;4.17;;;;;;;8.80;83.58;100421.73;128156;1104;62133;-81
2021/05/26 02:15:48;;;;;;;5.87;3.40;;;;;;;8.82;83.58;100427.68;128074;1104;62474;-81
2021/05/26 02:18:16;;;;;;;6.60;3.77;;;;;;;8.81;83.73;100431.34;128110;1104;62250;-81
2021/05/26 02:20:43;;;;;;;5.03;4.23;;;;;;;8.78;83.87;100430.67;128100;1104;62253;-81
2021/05/26 02:23:13;;;;;;;5.47;4.10;;;;;;;8.76;83.94;100431.85;128268;1102;62481;-81
2021/05/26 02:25:41;;;;;;;6.47;4.20;;;;;;;8.76;83.74;100431.85;128104;1101;64356;-82
2021/05/26 02:28:09;;;;;;;4.50;2.80;;;;;;;8.78;83.64;100429.86;128122;1104;62538;-82
2021/05/26 02:30:36;;;;;;;6.07;3.70;;;;;;;8.77;84.39;100425.55;128120;1103;62372;-82
2021/05/26 02:33:03;;;;;;;4.40;3.47;;;;;;;8.77;83.86;100433.48;128198;1101;62248;-81
2021/05/26 02:35:31;;;;;;;6.43;4.30;;;;;;;8.77;83.86;100429.02;128203;1102;62953;-81
2021/05/26 02:37:58;;;;;;;7.27;5.00;;;;;;;8.78;83.81;100429.86;128069;1102;62877;-82
2021/05/26 02:40:25;;;;;;;8.50;5.57;;;;;;;8.79;84.40;100428.85;128176;1101;62341;-82
2021/05/26 02:42:52;;;;;;;4.53;2.57;;;;;;;8.78;83.56;100427.22;128102;1104;62986;-81
2021/05/26 02:45:19;;;;;;;5.93;4.80;;;;;;;8.81;83.69;100428.69;128116;1104;62213;-81
2021/05/26 02:47:47;;;;;;;4.57;2.63;;;;;;;8.80;84.21;100427.88;128101;1101;62044;-80
2021/05/26 02:50:17;;;;;;;7.27;4.20;;;;;;;8.78;84.49;100424.57;128128;1104;62194;-81
2021/05/26 02:52:49;;;;;;;7.90;5.07;;;;;;;8.78;83.88;100424.57;128177;1104;62594;-81
2021/05/26 02:55:19;;;;;;;8.43;4.30;;;;;;;8.78;84.49;100429.86;128115;1104;62305;-81
2021/05/26 02:57:46;;;;;;;6.93;3.53;;;;;;;8.76;84.99;100429.20;128204;1101;62742;-81
2021/05/26 03:00:17;;;;;;;7.47;3.57;;;;;;;8.74;85.91;100429.36;128124;1104;62085;-81
2021/05/26 03:02:45;;;;;;;9.70;5.37;;;;;;;8.72;85.67;100438.47;128155;1104;63717;-81
2021/05/26 03:05:15;;;;;;;8.57;4.37;;;;;;;8.71;85.53;100428.87;128091;1104;62485;-81
2021/05/26 03:07:43;;;;;;;8.80;4.07;;;;;;;8.72;85.72;100422.60;128128;1104;62322;-81
2021/05/26 03:10:12;;;;;;;8.00;4.97;;;;;;;8.71;86.81;100428.87;128119;1104;62532;-81
2021/05/26 03:12:41;;;;;;;9.07;6.47;;;;;;;8.70;86.83;100421.95;128149;1104;62246;-80
2021/05/26 03:15:11;;;;;;;17.17;7.27;;;;;;;8.69;87.74;100420.28;128178;1101;62605;-79
2021/05/26 03:17:40;;;;;;;13.70;6.10;;;;;;;8.65;88.81;100442.77;128118;1104;62430;-80
2021/05/26 03:20:11;;;;;;;10.30;5.27;;;;;;;8.60;89.26;100431.88;128071;1104;62515;-81
2021/05/26 03:22:40;;;;;;;14.13;6.87;;;;;;;8.52;89.43;100436.20;128121;1104;63974;-81
2021/05/26 03:27:41;;;;;;;6.93;5.30;;;;;;;8.37;90.64;100424.60;128659;1092;63334;-74
2021/05/26 03:30:16;;;;;;;8.60;3.17;;;;;;;8.28;89.56;100422.97;128638;1101;62771;-72
2021/05/26 03:32:43;;;;;;;5.00;4.07;;;;;;;8.18;90.13;100425.77;128677;1101;62388;-73
2021/05/26 03:35:12;;;;;;;5.27;3.47;;;;;;;8.12;90.44;100429.10;128702;1101;62071;-74
2021/05/26 03:37:40;;;;;;;5.93;4.00;;;;;;;8.06;90.76;100411.27;128661;1101;62397;-74
2021/05/26 03:40:13;;;;;;;6.07;3.50;;;;;;;8.03;90.48;100411.58;128441;1101;63632;-74
2021/05/26 03:42:42;;;;;;;6.30;2.27;;;;;;;7.97;89.81;100415.73;128686;1101;62140;-74
2021/05/26 03:45:11;;;;;;;4.40;2.53;;;;;;;7.95;90.59;100412.42;128679;1101;62002;-74
2021/05/26 03:47:39;;;;;;;6.50;3.20;;;;;;;7.94;90.62;100416.86;128392;1101;62074;-75
2021/05/26 03:50:12;;;;;;;2.50;1.70;;;;;;;7.93;90.85;100419.69;128679;1101;62030;-76
2021/05/26 03:52:45;;;;;;;3.23;2.07;;;;;;;7.91;90.72;100414.56;128665;1101;62996;-75
2021/05/26 03:55:15;;;;;;;3.33;2.57;;;;;;;7.92;90.73;100423.30;128663;1101;62147;-76
2021/05/26 03:57:43;;;;;;;3.97;2.07;;;;;;;7.93;91.28;100427.61;128360;1102;62240;-76
2021/05/26 04:00:14;;;;;;;6.30;2.95;;;;;;;7.93;91.35;100417.86;128369;1102;62198;-75
2021/05/26 04:02:42;;;;;;;6.87;4.20;;;;;;;7.93;92.18;100427.61;128299;1104;62170;-75
2021/05/26 04:05:10;;;;;;;10.03;5.97;;;;;;;7.93;92.61;100423.14;128402;1104;62799;-73
2021/05/26 04:07:37;;;;;;;12.07;7.23;;;;;;;7.94;93.41;100416.86;128549;1101;62960;-76
2021/05/26 04:10:06;;;;;;;13.23;7.23;;;;;;;7.99;93.39;100415.54;128304;1104;62097;-75
2021/05/26 04:12:33;;;;;;;8.83;6.73;;;;;;;8.03;93.61;100409.76;128608;1101;62104;-74
2021/05/26 04:15:00;;;;;;;10.77;6.43;;;;;;;8.05;93.20;100410.42;128330;1104;62105;-75
2021/05/26 04:17:27;;;;;;;14.23;7.50;;;;;;;8.09;93.11;100406.45;128352;1101;62137;-75
2021/05/26 04:20:02;;;;;;;13.30;7.07;;;;;;;8.15;92.90;100407.63;128588;1101;62473;-75
2021/05/26 04:22:32;;;;;;;10.57;7.50;;;;;;;8.19;91.38;100418.69;128407;1101;62068;-75
2021/05/26 04:25:00;;;;;;;13.00;6.70;;;;;;;8.25;91.80;100408.28;128488;1101;62166;-74
2021/05/26 04:27:31;;;;;;;10.53;6.33;;;;;;;8.30;91.42;100405.95;128360;1104;62006;-75
2021/05/26 04:30:00;;;;;;;10.90;5.43;;;;;;;8.36;90.36;100400.00;128364;1104;63109;-77
2021/05/26 04:32:27;;;;;;;8.47;5.03;;;;;;;8.43;90.69;100400.18;128331;1103;62339;-77
2021/05/26 04:34:54;;;;;;;10.43;6.27;;;;;;;8.47;90.33;100406.78;128358;1104;62061;-76
2021/05/26 04:37:21;;;;;;;10.67;5.87;;;;;;;8.49;90.31;100391.58;128358;1104;62072;-75
2021/05/26 04:39:48;;;;;;;9.67;4.83;;;;;;;8.48;89.64;100391.73;128364;1104;62737;-76
2021/05/26 04:42:15;;;;;;;7.37;5.57;;;;;;;8.47;89.77;100401.49;128394;1104;62100;-75
2021/05/26 04:44:45;;;;;;;7.47;4.67;;;;;;;8.45;89.42;100398.19;128302;1104;61541;-74
2021/05/26 04:47:12;;;;;;;7.97;4.87;;;;;;;8.45;90.09;100394.73;128402;1104;62160;-75
2021/05/26 04:49:39;;;;;;;10.63;7.00;;;;;;;8.42;89.82;100398.55;128349;1102;62081;-78
2021/05/26 04:52:06;;;;;;;8.80;5.80;;;;;;;8.40;89.70;100389.92;128390;1104;62436;-77
2021/05/26 04:54:33;;;;;;;9.53;6.57;;;;;;;8.40;90.42;100392.56;128327;1104;62882;-75
2021/05/26 04:57:01;;;;;;;11.33;6.10;;;;;;;8.41;89.95;100388.95;128357;1104;62046;-75
2021/05/26 04:59:31;;;;;;;9.73;5.67;;;;;;;8.44;90.49;100391.27;128314;1104;62390;-75
2021/05/26 05:02:04;;;;;;;;;;;;;;;8.51;89.10;100386.95;128370;1104;62891;-76
2021/05/26 05:04:31;;;;;;;7.07;4.77;;;;;;;8.60;89.61;100389.58;128335;1104;62028;-75
2021/05/26 05:06:59;;;;;;;7.40;3.73;;;;;;;8.67;89.81;100393.18;128353;1104;62036;-75
2021/05/26 05:09:26;;;;;;;9.57;3.90;;;;;;;8.67;89.23;100387.89;128334;1104;62408;-76
2021/05/26 05:11:53;;;;;;;6.20;4.77;;;;;;;8.68;88.56;100384.27;128338;1104;61906;-75
2021/05/26 05:14:20;;;;;;;8.17;4.63;;;;;;;8.69;88.05;100396.48;128364;1102;62111;-75
2021/05/26 05:16:47;;;;;;;7.27;3.70;;;;;;;8.73;88.41;100380.13;128387;1104;62192;-76
2021/05/26 05:19:14;;;;;;;13.00;5.40;;;;;;;8.77;87.71;100393.81;128335;1104;62872;-76
2021/05/26 05:21:41;;;;;;;6.70;4.50;;;;;;;8.87;88.09;100383.05;128352;1103;62680;-76
2021/05/26 05:24:08;;;;;;;10.93;5.03;;;;;;;9.03;87.26;100382.14;128358;1104;62115;-76
2021/05/26 05:26:35;;;;;;;9.77;4.63;;;;;;;9.17;86.28;100386.70;128385;1104;63017;-77
2021/05/26 05:29:03;;;;;;;10.73;5.40;;;;;;;9.27;85.12;100387.32;128329;1104;62589;-75
2021/05/26 05:31:31;;;;;;;14.53;5.03;;;;;;;9.36;85.14;100380.97;128354;1104;62114;-76
2021/05/26 05:33:59;;;;;;;7.97;4.17;;;;;;;9.43;84.47;100380.27;128352;1104;62575;-78
2021/05/26 05:36:26;;;;;;;10.10;5.67;;;;;;;9.49;85.47;100379.58;128380;1104;62359;-76
2021/05/26 05:38:53;;;;;;;10.53;4.23;;;;;;;9.57;85.40;100376.88;128361;1104;62552;-76
2021/05/26 05:41:20;;;;;;;9.27;4.27;;;;;;;9.61;83.75;100380.83;128363;1102;62162;-76
2021/05/26 05:43:48;;;;;;;10.53;4.30;;;;;;;9.66;82.51;100386.41;128358;1104;62322;-75
2021/05/26 05:46:15;;;;;;;9.40;4.80;;;;;;;9.71;84.24;100381.42;128303;1104;62038;-76
2021/05/26 05:48:42;;;;;;;8.37;3.77;;;;;;;9.75;83.53;100377.42;128369;1102;62321;-77
2021/05/26 05:51:09;;;;;;;8.20;4.00;;;;;;;9.75;82.71;100376.57;128317;1104;61508;-78
2021/05/26 05:53:36;;;;;;;11.70;4.90;;;;;;;9.77;82.63;100371.92;128374;1104;62857;-79
2021/05/26 05:56:03;;;;;;;6.50;4.33;;;;;;;9.76;82.21;100381.70;128372;1102;62078;-79
2021/05/26 05:58:31;;;;;;;11.80;3.93;;;;;;;9.75;81.55;100371.27;128368;1104;62529;-79
2021/05/26 06:00:58;;;;;;;10.90;4.10;;;;;;;9.72;82.54;100361.86;128347;1104;62209;-77
2021/05/26 06:03:26;;;;;;;4.83;3.20;;;;;;;9.75;81.11;100372.12;128359;1104;61933;-78
2021/05/26 06:05:53;;;;;;;6.53;3.77;;;;;;;9.82;81.07;100369.58;128388;1104;61784;-79
2021/05/26 06:08:20;;;;;;;9.27;4.37;;;;;;;9.98;81.84;100360.66;128375;1104;62094;-80
2021/05/26 06:10:47;;;;;;;10.97;3.33;;;;;;;10.19;80.17;100352.83;128337;1104;61986;-78
2021/05/26 06:13:14;;;;;;;7.20;3.83;;;;;;;10.32;78.73;100376.09;128444;1101;63584;-79
2021/05/26 06:15:41;;;;;;;8.00;3.97;;;;;;;10.48;78.36;100376.96;128378;1104;61999;-78
2021/05/26 06:18:08;;;;;;;11.10;4.60;;;;;;;10.60;79.02;100367.52;128345;1104;62552;-79
2021/05/26 06:20:35;;;;;;;7.73;4.40;;;;;;;10.67;77.42;100367.61;128581;1101;62054;-79
2021/05/26 06:23:02;;;;;;;5.67;3.40;;;;;;;10.72;78.39;100359.94;128438;1104;62062;-80
2021/05/26 06:25:29;;;;;;;8.87;3.93;;;;;;;10.85;76.48;100349.48;128498;1101;61972;-79
2021/05/26 06:27:56;;;;;;;11.40;4.13;;;;;;;10.96;75.59;100364.92;128468;1104;61937;-77
2021/05/26 06:30:24;;;;;;;6.80;3.60;;;;;;;11.02;75.54;100364.19;128497;1104;61975;-77
2021/05/26 06:32:51;;;;;;;8.93;4.37;;;;;;;11.05;75.75;100356.86;128544;1101;62015;-78
2021/05/26 06:35:18;;;;;;;7.97;4.53;;;;;;;11.14;76.00;100353.11;128439;1104;64183;-79
2021/05/26 06:37:45;;;;;;;7.67;3.30;;;;;;;11.27;76.41;100350.59;128780;1101;62259;-80
2021/05/26 06:40:14;;;;;;;12.70;3.73;;;;;;;11.40;75.27;100348.06;128496;1101;62002;-77
2021/05/26 06:42:43;;;;;;;10.30;3.50;;;;;;;11.50;75.08;100349.61;128551;1102;61966;-77
2021/05/26 06:45:13;;;;;;;7.80;3.33;;;;;;;11.54;74.52;100348.19;128613;1101;61972;-80
2021/05/26 06:47:42;;;;;;;8.10;3.60;;;;;;;11.53;73.80;100347.38;128452;1086;62250;-80
2021/05/26 06:50:10;;;;;;;10.23;3.87;;;;;;;11.62;72.61;100342.75;128481;1104;63549;-77
2021/05/26 06:52:37;;;;;;;8.63;3.57;;;;;;;11.65;72.93;100349.55;128484;1104;61873;-77
2021/05/26 06:55:07;;;;;;;5.57;2.73;;;;;;;11.79;73.36;100352.13;128444;1104;61355;-77
2021/05/26 06:57:34;;;;;;;7.67;3.73;;;;;;;11.82;71.92;100338.45;128464;1104;63550;-78
2021/05/26 07:00:03;;;;;;;12.30;4.20;;;;;;;11.90;71.94;100344.66;128393;1104;61968;-77
2021/05/26 07:02:30;;;;;;;9.90;4.63;;;;;;;11.81;70.68;100344.77;128456;1104;62282;-77
2021/05/26 07:04:57;;;;;;;9.13;3.80;;;;;;;11.70;70.55;100353.25;128451;1104;61946;-78
2021/05/26 07:07:24;;;;;;;8.37;4.40;;;;;;;11.58;71.14;100341.48;128438;1104;61881;-80
2021/05/26 07:09:51;;;;;;;7.27;3.60;;;;;;;11.59;71.31;100345.80;128394;1104;62531;-78
2021/05/26 07:12:19;;;;;;;10.43;4.03;;;;;;;11.66;72.10;100341.36;128471;1104;61524;-81
2021/05/26 07:14:46;;;;;;;10.10;3.70;;;;;;;11.70;70.65;100347.13;128440;1104;62119;-77
2021/05/26 07:17:13;;;;;;;8.87;4.00;;;;;;;11.75;71.47;100347.37;128433;1104;62311;-81
2021/05/26 07:19:44;;;;;;;11.00;4.27;;;;;;;11.77;71.21;100327.58;128423;1104;61969;-78
2021/05/26 07:22:11;;;;;;;9.40;5.10;;;;;;;11.76;70.67;100338.39;128423;1104;62828;-81
2021/05/26 07:24:38;;;;;;;7.93;3.80;;;;;;;11.69;70.11;100341.00;128392;1104;62061;-79
2021/05/26 07:27:06;;;;;;;9.07;5.40;;;;;;;11.62;69.72;100350.72;128410;1104;62006;-80
2021/05/26 07:29:33;;;;;;;10.53;6.00;;;;;;;11.56;70.02;100330.23;128348;1104;62303;-80
2021/05/26 07:32:01;;;;;;;11.23;6.10;;;;;;;11.64;71.27;100351.36;128451;1104;62450;-79
2021/05/26 07:34:27;;;;;;;15.87;7.00;;;;;;;11.72;71.40;100340.61;128397;1105;63606;-81
2021/05/26 07:36:55;;;;;;;11.27;5.27;;;;;;;11.77;70.89;100348.84;128380;1104;62102;-81
2021/05/26 07:39:24;;;;;;;11.90;5.20;;;;;;;11.86;70.22;100356.66;128420;1104;62081;-79
2021/05/26 07:41:51;;;;;;;11.63;5.13;;;;;;;11.92;69.84;100351.45;128427;1104;62362;-78
2021/05/26 07:44:19;;;;;;;11.70;4.40;;;;;;;11.88;69.84;100341.34;128399;1104;62042;-79
2021/05/26 07:46:46;;;;;;;10.87;5.67;;;;;;;11.87;68.94;100353.00;128371;1104;62068;-78
2021/05/26 07:49:13;;;;;;;12.43;5.43;;;;;;;11.97;69.33;100337.58;128399;1104;61465;-79
2021/05/26 07:51:45;;;;;;;12.20;3.40;;;;;;;12.04;67.70;100343.76;128437;1104;62036;-78
2021/05/26 07:54:12;;;;;;;9.90;4.37;;;;;;;12.04;67.75;100341.09;128361;1104;62144;-78
2021/05/26 07:56:39;;;;;;;11.13;4.07;;;;;;;12.08;68.89;100338.88;128360;1104;62059;-79
2021/05/26 07:59:06;;;;;;;9.63;5.23;;;;;;;12.05;67.35;100340.09;128456;1104;62828;-78
2021/05/26 08:01:33;;;;;;;8.10;4.53;;;;;;;12.10;67.49;100329.69;128352;1104;62033;-80
2021/05/26 08:04:00;;;;;;;8.87;4.23;;;;;;;12.13;68.91;100326.63;128467;1104;61993;-78
2021/05/26 08:06:27;;;;;;;10.73;4.70;;;;;;;12.25;69.30;100361.50;128394;1104;63360;-82
2021/05/26 08:08:55;;;;;;;11.67;5.00;;;;;;;12.33;67.78;100336.61;128453;1104;62292;-82
2021/05/26 08:11:23;;;;;;;15.40;8.70;;;;;;;12.36;67.19;100330.88;128403;1104;62902;-79
2021/05/26 08:13:50;;;;;;;11.40;6.00;;;;;;;12.35;66.00;100350.53;128398;1104;62067;-78
2021/05/26 08:16:17;;;;;;;10.03;5.70;;;;;;;12.36;66.61;100325.56;128380;1104;62275;-83
2021/05/26 08:18:44;;;;;;;14.23;7.07;;;;;;;12.32;65.16;100338.42;128375;1104;61947;-82
2021/05/26 08:21:15;;;;;;;8.43;4.10;;;;;;;12.26;64.90;100322.42;128380;1104;63247;-78
2021/05/26 08:23:45;;;;;;;8.03;3.37;;;;;;;12.20;64.51;100343.47;128367;1104;62891;-79
2021/05/26 08:26:20;;;;;;;8.07;4.20;;;;;;;12.14;65.10;100324.81;128371;1104;62341;-79
2021/05/26 08:28:52;;;;;;;11.73;4.40;;;;;;;12.18;65.53;100318.91;128433;1105;62354;-81
2021/05/26 08:31:21;;;;;;;6.27;2.97;;;;;;;12.29;66.19;100320.20;128399;1104;62056;-81
2021/05/26 08:33:51;;;;;;;7.37;3.27;;;;;;;12.43;66.20;100318.42;128424;1104;62189;-82
2021/05/26 08:36:19;;;;;;;4.93;2.83;;;;;;;12.49;65.71;100320.30;128359;1104;62119;-78
2021/05/26 08:38:46;;;;;;;8.40;3.03;;;;;;;12.53;64.74;100308.25;128499;1086;61796;-78
2021/05/26 08:41:17;;;;;;;8.53;3.90;;;;;;;12.49;63.14;100320.30;128413;1101;61984;-82
2021/05/26 08:43:44;;;;;;;7.27;4.97;;;;;;;12.56;64.46;100302.55;128449;1104;61957;-78
2021/05/26 08:46:12;;;;;;;5.83;3.80;;;;;;;12.57;64.25;100306.03;128394;1102;62084;-82
2021/05/26 08:48:41;;;;;;;8.93;3.50;;;;;;;12.51;63.18;100312.95;128444;1101;62876;-79
2021/05/26 08:51:13;;;;;;;5.63;3.87;;;;;;;12.47;62.71;100322.34;128421;1101;62001;-83
2021/05/26 08:53:40;;;;;;;14.50;4.73;;;;;;;12.35;63.89;100314.11;128453;1101;61920;-79
2021/05/26 08:56:08;;;;;;;8.30;3.20;;;;;;;12.28;64.01;100310.56;128402;1104;62018;-83
2021/05/26 08:58:42;;;;;;;10.13;4.40;;;;;;;12.21;63.58;100305.21;128450;1103;61995;-80
2021/05/26 09:01:14;;;;;;;8.47;4.13;;;;;;;12.16;64.86;100302.33;128619;1101;64577;-81
2021/05/26 09:03:42;;;;;;;6.17;3.97;;;;;;;12.15;64.86;100298.02;128362;1104;62091;-79
2021/05/26 09:06:13;;;;;;;7.67;3.30;;;;;;;12.20;64.12;100326.70;128594;1101;62011;-82
2021/05/26 09:08:50;;;;;;;5.53;2.73;;;;;;;12.29;64.09;100298.92;128461;1101;62783;-79
2021/05/26 09:11:30;;;;;;;9.93;5.27;;;;;;;12.50;63.75;100292.70;128445;1101;61821;-82
2021/05/26 09:13:57;;;;;;;10.47;5.63;;;;;;;12.75;63.76;100294.84;128414;1104;62113;-82
2021/05/26 09:16:25;;;;;;;9.67;6.03;;;;;;;12.91;62.80;100291.02;128440;1102;62025;-81
2021/05/26 09:18:58;;;;;;;7.87;5.20;;;;;;;12.96;61.68;100288.56;128416;1101;62073;-78
2021/05/26 09:21:43;;;;;;;11.40;5.40;;;;;;;13.02;62.29;100288.58;128402;1104;62168;-78
2021/05/26 09:24:20;;;;;;;7.43;4.00;;;;;;;13.14;62.22;100296.00;128357;1104;62210;-83
2021/05/26 09:26:55;;;;;;;9.53;5.03;;;;;;;13.27;62.99;100301.34;128462;1104;62707;-79
2021/05/26 09:29:43;;;;;;;;;;;;;;;13.37;60.50;100280.49;128424;1102;61944;-79
2021/05/26 09:32:22;;;;;;;7.47;4.97;;;;;;;13.35;59.90;100277.21;128492;1103;61994;-82
2021/05/26 09:34:53;;;;;;;10.97;4.83;;;;;;;13.37;60.11;100280.49;128633;1101;62198;-79
2021/05/26 09:37:27;;;;;;;8.47;4.10;;;;;;;13.35;59.80;100271.88;128431;1102;62268;-83
2021/05/26 09:40:09;;;;;;;7.00;4.15;;;;;;;13.43;59.92;100277.02;128355;1102;64154;-83
2021/05/26 09:42:38;;;;;;;7.63;3.57;;;;;;;13.56;60.54;100278.05;128369;1104;62055;-81
2021/05/26 09:45:12;;;;;;;5.77;3.70;;;;;;;13.64;59.61;100275.16;128412;1104;61957;-79
2021/05/26 09:47:47;;;;;;;7.67;4.47;;;;;;;13.70;58.71;100276.20;128432;1101;62046;-82
2021/05/26 09:50:23;;;;;;;6.73;4.37;;;;;;;13.73;57.75;100273.95;128421;1104;62164;-79
2021/05/26 09:53:16;;;;;;;7.47;4.07;;;;;;;13.80;58.22;100264.09;128373;1103;63801;-79
2021/05/26 09:55:45;;;;;;;10.40;5.33;;;;;;;13.92;57.87;100276.78;128399;1104;61957;-81
2021/05/26 09:58:15;;;;;;;10.77;5.43;;;;;;;14.00;57.37;100268.57;128405;1102;62055;-79
2021/05/26 10:00:47;;;;;;;6.60;4.33;;;;;;;13.92;57.11;100274.12;128386;1104;62182;-82
2021/05/26 10:03:14;;;;;;;6.33;4.00;;;;;;;13.80;57.15;100269.42;128391;1104;62040;-79
2021/05/26 10:05:42;;;;;;;5.10;3.17;;;;;;;13.77;56.93;100264.52;128420;1104;62218;-83
2021/05/26 10:08:13;;;;;;;5.43;3.27;;;;;;;13.80;56.78;100269.42;128363;1104;62305;-78
2021/05/26 10:10:44;;;;;;;6.07;3.60;;;;;;;14.03;56.44;100255.65;128432;1104;62026;-82
2021/05/26 10:13:12;;;;;;;6.80;3.57;;;;;;;14.36;54.76;100251.25;128430;1104;62118;-81
2021/05/26 10:15:41;;;;;;;7.70;3.87;;;;;;;14.50;53.96;100236.83;128416;1103;61982;-82
2021/05/26 10:18:10;;;;;;;6.80;2.87;;;;;;;14.68;53.92;100246.83;128436;1104;62172;-81
2021/05/26 10:20:43;;;;;;;6.27;2.63;;;;;;;14.87;53.33;100245.09;128385;1104;62103;-81
2021/05/26 10:23:16;;;;;;;5.10;2.17;;;;;;;15.07;52.66;100248.47;128418;1104;62083;-78
2021/05/26 10:25:45;;;;;;;4.75;2.80;;;;;;;15.19;51.95;100247.77;128393;1104;61988;-78
2021/05/26 10:28:26;;;;;;;3.00;2.30;;;;;;;15.28;51.79;100243.81;128474;1101;62195;-79
2021/05/26 10:30:55;;;;;;;4.63;2.00;;;;;;;15.27;50.18;100231.47;128457;1101;62082;-79
2021/05/26 10:33:42;;;;;;;3.27;1.57;;;;;;;15.37;52.15;100228.33;128398;1104;62525;-79
2021/05/26 10:36:11;;;;;;;4.90;2.13;;;;;;;15.64;49.91;100234.25;128394;1104;62180;-80
2021/05/26 10:39:00;;;;;;;5.43;2.10;;;;;;;15.40;49.78;100234.03;128426;1104;62090;-78
2021/05/26 10:41:50;;;;;;;3.50;2.17;;;;;;;15.09;51.58;100229.56;128378;1104;61960;-80
2021/05/26 10:44:18;;;;;;;5.90;1.87;;;;;;;14.97;52.42;100228.61;128451;1104;62101;-79
2021/05/26 10:46:49;;;;;;;2.83;1.80;;;;;;;14.89;53.61;100225.14;128407;1103;62105;-78
2021/05/26 10:49:16;;;;;;;3.47;1.80;;;;;;;14.92;52.58;100223.91;128683;1101;62066;-81
2021/05/26 10:51:53;;;;;;;2.73;1.43;;;;;;;15.05;52.51;100221.15;128402;1104;62087;-82
2021/05/26 10:54:53;;;;;;;3.43;1.53;;;;;;;15.20;49.58;100233.39;128429;1104;62052;-81
2021/05/26 10:57:20;;;;;;;3.60;1.80;;;;;;;15.22;50.43;100221.45;128682;1101;62101;-83
2021/05/26 11:00:27;;;;;;;3.70;1.67;;;;;;;15.17;50.33;100241.82;128387;1104;62522;-77
2021/05/26 11:03:36;;;;;;;4.07;1.87;;;;;;;15.12;50.21;100225.63;128149;1104;62007;-82
2021/05/26 11:06:04;;;;;;;3.63;1.57;;;;;;;15.28;49.72;100231.27;127965;1105;62019;-81
2021/05/26 11:08:45;;;;;;;4.50;1.60;;;;;;;15.38;49.06;100227.28;128599;1101;62091;-78
2021/05/26 11:11:24;;;;;;;2.73;1.30;;;;;;;15.33;48.95;100227.94;128695;1101;62865;-78
2021/05/26 11:14:17;;;;;;;3.03;1.10;;;;;;;15.26;48.55;100256.58;128549;1101;61505;-78
2021/05/26 11:16:45;;;;;;;4.90;1.93;;;;;;;15.36;49.06;100224.81;128462;1104;62014;-78
2021/05/26 11:19:14;;;;;;;4.70;1.67;;;;;;;15.59;48.46;100234.09;128545;1101;63184;-83
2021/05/26 11:22:00;;;;;;;4.93;1.83;;;;;;;15.67;49.61;100220.45;128555;1101;62577;-84
2021/05/26 11:24:33;;;;;;;6.77;1.47;;;;;;;15.40;49.71;100226.02;128713;1101;62874;-83
2021/05/26 11:29:34;;;;;;;5.03;1.47;;;;;;;15.35;49.89;100220.52;128443;1092;62036;-78
2021/05/26 11:32:15;;;;;;;2.23;1.43;;;;;;;15.42;49.48;100223.95;128650;1101;62077;-82
2021/05/26 11:34:47;;;;;;;4.33;1.30;;;;;;;15.52;48.35;100215.45;128477;1101;61994;-78
2021/05/26 11:37:28;;;;;;;2.03;1.27;;;;;;;15.54;48.44;100212.56;128402;1101;62908;-78